sensor_id;sensor_type;location;lat;lon;timestamp;P1;durP1;ratioP1;P2;durP2;ratioP2
74213;SDS011;62576;55.694;37.494;2024-03-02T00:01:46;52.38;;;21.25;;
74213;SDS011;62576;55.694;37.494;2024-03-02T00:04:16;49.55;;;20.08;;
74213;SDS011;62576;55.694;37.494;2024-03-02T00:06:51;50.58;;;19.85;;
74213;SDS011;62576;55.694;37.494;2024-03-02T00:09:22;54.97;;;22.20;;
74213;SDS011;62576;55.694;37.494;2024-03-02T00:11:53;48.10;;;20.58;;
74213;SDS011;62576;55.694;37.494;2024-03-02T00:14:23;52.63;;;21.48;;
74213;SDS011;62576;55.694;37.494;2024-03-02T00:16:55;53.28;;;20.80;;
74213;SDS011;62576;55.694;37.494;2024-03-02T00:19:26;55.42;;;21.48;;
74213;SDS011;62576;55.694;37.494;2024-03-02T00:21:56;56.47;;;21.50;;
74213;SDS011;62576;55.694;37.494;2024-03-02T00:24:31;51.15;;;21.40;;
74213;SDS011;62576;55.694;37.494;2024-03-02T00:27:03;57.28;;;22.02;;
74213;SDS011;62576;55.694;37.494;2024-03-02T00:29:35;55.78;;;22.48;;
74213;SDS011;62576;55.694;37.494;2024-03-02T00:32:08;51.53;;;22.13;;
74213;SDS011;62576;55.694;37.494;2024-03-02T00:34:43;55.83;;;21.80;;
74213;SDS011;62576;55.694;37.494;2024-03-02T00:37:13;59.30;;;22.25;;
74213;SDS011;62576;55.694;37.494;2024-03-02T00:39:44;51.83;;;21.83;;
74213;SDS011;62576;55.694;37.494;2024-03-02T00:42:19;53.45;;;22.08;;
74213;SDS011;62576;55.694;37.494;2024-03-02T00:44:49;59.75;;;23.25;;
74213;SDS011;62576;55.694;37.494;2024-03-02T00:47:20;56.92;;;23.17;;
74213;SDS011;62576;55.694;37.494;2024-03-02T00:49:51;57.45;;;22.75;;
74213;SDS011;62576;55.694;37.494;2024-03-02T00:52:21;57.72;;;22.75;;
74213;SDS011;62576;55.694;37.494;2024-03-02T00:54:51;59.58;;;22.67;;
74213;SDS011;62576;55.694;37.494;2024-03-02T00:57:22;54.67;;;22.50;;
74213;SDS011;62576;55.694;37.494;2024-03-02T00:59:55;61.03;;;22.77;;
74213;SDS011;62576;55.694;37.494;2024-03-02T01:02:27;54.83;;;22.90;;
74213;SDS011;62576;55.694;37.494;2024-03-02T01:04:58;55.77;;;23.23;;
74213;SDS011;62576;55.694;37.494;2024-03-02T01:07:28;56.15;;;23.13;;
74213;SDS011;62576;55.694;37.494;2024-03-02T01:09:58;59.17;;;22.85;;
74213;SDS011;62576;55.694;37.494;2024-03-02T01:12:29;57.47;;;22.52;;
74213;SDS011;62576;55.694;37.494;2024-03-02T01:14:59;57.30;;;22.80;;
74213;SDS011;62576;55.694;37.494;2024-03-02T01:17:31;53.92;;;23.20;;
74213;SDS011;62576;55.694;37.494;2024-03-02T01:20:01;60.70;;;23.13;;
74213;SDS011;62576;55.694;37.494;2024-03-02T01:22:31;57.60;;;22.70;;
74213;SDS011;62576;55.694;37.494;2024-03-02T01:25:02;57.85;;;23.08;;
74213;SDS011;62576;55.694;37.494;2024-03-02T01:27:32;60.10;;;23.17;;
74213;SDS011;62576;55.694;37.494;2024-03-02T01:30:02;61.47;;;23.88;;
74213;SDS011;62576;55.694;37.494;2024-03-02T01:32:35;58.95;;;23.48;;
74213;SDS011;62576;55.694;37.494;2024-03-02T01:35:08;58.60;;;22.70;;
74213;SDS011;62576;55.694;37.494;2024-03-02T01:37:38;54.35;;;23.13;;
74213;SDS011;62576;55.694;37.494;2024-03-02T01:40:09;58.28;;;22.25;;
74213;SDS011;62576;55.694;37.494;2024-03-02T01:42:40;54.60;;;22.42;;
74213;SDS011;62576;55.694;37.494;2024-03-02T01:45:10;51.28;;;22.10;;
74213;SDS011;62576;55.694;37.494;2024-03-02T01:47:42;56.13;;;22.15;;
74213;SDS011;62576;55.694;37.494;2024-03-02T01:50:12;56.30;;;24.05;;
74213;SDS011;62576;55.694;37.494;2024-03-02T01:52:42;55.20;;;22.42;;
74213;SDS011;62576;55.694;37.494;2024-03-02T01:55:13;53.95;;;23.25;;
74213;SDS011;62576;55.694;37.494;2024-03-02T01:57:43;55.28;;;22.58;;
74213;SDS011;62576;55.694;37.494;2024-03-02T02:00:16;62.33;;;23.92;;
74213;SDS011;62576;55.694;37.494;2024-03-02T02:02:48;54.75;;;22.98;;
74213;SDS011;62576;55.694;37.494;2024-03-02T02:05:18;57.88;;;22.63;;
74213;SDS011;62576;55.694;37.494;2024-03-02T02:07:48;58.28;;;23.42;;
74213;SDS011;62576;55.694;37.494;2024-03-02T02:10:19;57.65;;;23.02;;
74213;SDS011;62576;55.694;37.494;2024-03-02T02:12:49;54.40;;;23.33;;
74213;SDS011;62576;55.694;37.494;2024-03-02T02:15:26;64.40;;;24.30;;
74213;SDS011;62576;55.694;37.494;2024-03-02T02:17:59;59.75;;;22.80;;
74213;SDS011;62576;55.694;37.494;2024-03-02T02:20:26;59.28;;;23.13;;
74213;SDS011;62576;55.694;37.494;2024-03-02T02:22:58;59.97;;;23.15;;
74213;SDS011;62576;55.694;37.494;2024-03-02T02:25:33;59.63;;;22.30;;
74213;SDS011;62576;55.694;37.494;2024-03-02T02:28:03;56.03;;;23.88;;
74213;SDS011;62576;55.694;37.494;2024-03-02T02:30:33;58.30;;;23.15;;
74213;SDS011;62576;55.694;37.494;2024-03-02T02:33:04;59.53;;;23.40;;
74213;SDS011;62576;55.694;37.494;2024-03-02T02:35:35;56.53;;;23.45;;
74213;SDS011;62576;55.694;37.494;2024-03-02T02:38:06;61.97;;;24.33;;
74213;SDS011;62576;55.694;37.494;2024-03-02T02:40:36;63.72;;;23.75;;
74213;SDS011;62576;55.694;37.494;2024-03-02T02:43:07;60.47;;;23.40;;
74213;SDS011;62576;55.694;37.494;2024-03-02T02:45:37;58.70;;;23.85;;
74213;SDS011;62576;55.694;37.494;2024-03-02T02:48:07;62.58;;;23.60;;
74213;SDS011;62576;55.694;37.494;2024-03-02T02:50:37;60.42;;;23.92;;
74213;SDS011;62576;55.694;37.494;2024-03-02T02:53:09;58.05;;;22.73;;
74213;SDS011;62576;55.694;37.494;2024-03-02T02:55:39;59.95;;;22.88;;
74213;SDS011;62576;55.694;37.494;2024-03-02T02:58:11;59.15;;;22.70;;
74213;SDS011;62576;55.694;37.494;2024-03-02T03:00:42;61.00;;;23.77;;
74213;SDS011;62576;55.694;37.494;2024-03-02T03:03:14;58.72;;;23.17;;
74213;SDS011;62576;55.694;37.494;2024-03-02T03:05:44;58.15;;;23.67;;
74213;SDS011;62576;55.694;37.494;2024-03-02T03:08:16;57.42;;;23.42;;
74213;SDS011;62576;55.694;37.494;2024-03-02T03:10:46;59.92;;;23.83;;
74213;SDS011;62576;55.694;37.494;2024-03-02T03:13:16;59.20;;;22.90;;
74213;SDS011;62576;55.694;37.494;2024-03-02T03:15:46;57.90;;;22.88;;
74213;SDS011;62576;55.694;37.494;2024-03-02T03:18:17;58.45;;;22.38;;
74213;SDS011;62576;55.694;37.494;2024-03-02T03:20:47;57.95;;;22.38;;
74213;SDS011;62576;55.694;37.494;2024-03-02T03:23:19;56.10;;;22.10;;
74213;SDS011;62576;55.694;37.494;2024-03-02T03:25:49;59.05;;;22.85;;
74213;SDS011;62576;55.694;37.494;2024-03-02T03:28:19;59.67;;;23.77;;
74213;SDS011;62576;55.694;37.494;2024-03-02T03:30:49;55.75;;;23.27;;
74213;SDS011;62576;55.694;37.494;2024-03-02T03:33:20;57.92;;;23.77;;
74213;SDS011;62576;55.694;37.494;2024-03-02T03:35:50;63.05;;;24.05;;
74213;SDS011;62576;55.694;37.494;2024-03-02T03:38:22;60.65;;;23.27;;
74213;SDS011;62576;55.694;37.494;2024-03-02T03:40:52;58.55;;;25.30;;
74213;SDS011;62576;55.694;37.494;2024-03-02T03:43:23;57.55;;;24.23;;
74213;SDS011;62576;55.694;37.494;2024-03-02T03:45:53;55.28;;;23.95;;
74213;SDS011;62576;55.694;37.494;2024-03-02T03:48:23;63.88;;;24.60;;
74213;SDS011;62576;55.694;37.494;2024-03-02T03:50:58;60.70;;;24.75;;
74213;SDS011;62576;55.694;37.494;2024-03-02T03:53:30;64.78;;;24.65;;
74213;SDS011;62576;55.694;37.494;2024-03-02T03:55:59;57.60;;;25.00;;
74213;SDS011;62576;55.694;37.494;2024-03-02T03:58:27;59.35;;;24.33;;
74213;SDS011;62576;55.694;37.494;2024-03-02T04:00:54;66.25;;;24.77;;
74213;SDS011;62576;55.694;37.494;2024-03-02T04:03:24;61.42;;;25.10;;
74213;SDS011;62576;55.694;37.494;2024-03-02T04:05:55;58.92;;;24.80;;
74213;SDS011;62576;55.694;37.494;2024-03-02T04:08:25;64.32;;;24.85;;
74213;SDS011;62576;55.694;37.494;2024-03-02T04:10:56;68.40;;;25.65;;
74213;SDS011;62576;55.694;37.494;2024-03-02T04:13:26;67.43;;;24.70;;
74213;SDS011;62576;55.694;37.494;2024-03-02T04:15:56;64.53;;;24.70;;
74213;SDS011;62576;55.694;37.494;2024-03-02T04:18:26;59.78;;;24.02;;
74213;SDS011;62576;55.694;37.494;2024-03-02T04:20:56;60.38;;;25.08;;
74213;SDS011;62576;55.694;37.494;2024-03-02T04:23:27;64.80;;;24.50;;
74213;SDS011;62576;55.694;37.494;2024-03-02T04:25:59;59.92;;;24.85;;
74213;SDS011;62576;55.694;37.494;2024-03-02T04:28:29;63.53;;;25.42;;
74213;SDS011;62576;55.694;37.494;2024-03-02T04:30:59;59.50;;;24.88;;
74213;SDS011;62576;55.694;37.494;2024-03-02T04:33:30;60.00;;;25.45;;
74213;SDS011;62576;55.694;37.494;2024-03-02T04:36:00;61.30;;;25.20;;
74213;SDS011;62576;55.694;37.494;2024-03-02T04:38:30;56.58;;;24.25;;
74213;SDS011;62576;55.694;37.494;2024-03-02T04:41:02;58.55;;;23.98;;
74213;SDS011;62576;55.694;37.494;2024-03-02T04:43:32;60.08;;;24.00;;
74213;SDS011;62576;55.694;37.494;2024-03-02T04:46:03;63.53;;;25.02;;
74213;SDS011;62576;55.694;37.494;2024-03-02T04:48:35;61.35;;;24.65;;
74213;SDS011;62576;55.694;37.494;2024-03-02T04:51:05;59.03;;;23.42;;
74213;SDS011;62576;55.694;37.494;2024-03-02T04:53:35;60.60;;;24.38;;
74213;SDS011;62576;55.694;37.494;2024-03-02T04:56:08;62.50;;;24.88;;
74213;SDS011;62576;55.694;37.494;2024-03-02T04:59:04;56.30;;;23.60;;
74213;SDS011;62576;55.694;37.494;2024-03-02T05:01:34;65.18;;;24.60;;
74213;SDS011;62576;55.694;37.494;2024-03-02T05:04:04;61.97;;;24.33;;
74213;SDS011;62576;55.694;37.494;2024-03-02T05:06:34;63.05;;;24.40;;
74213;SDS011;62576;55.694;37.494;2024-03-02T05:09:05;56.75;;;22.30;;
74213;SDS011;62576;55.694;37.494;2024-03-02T05:11:36;59.72;;;24.55;;
74213;SDS011;62576;55.694;37.494;2024-03-02T05:14:37;62.10;;;24.13;;
74213;SDS011;62576;55.694;37.494;2024-03-02T05:17:08;63.80;;;24.63;;
74213;SDS011;62576;55.694;37.494;2024-03-02T05:19:38;59.13;;;25.50;;
74213;SDS011;62576;55.694;37.494;2024-03-02T05:22:08;61.90;;;25.52;;
74213;SDS011;62576;55.694;37.494;2024-03-02T05:24:38;62.20;;;24.95;;
74213;SDS011;62576;55.694;37.494;2024-03-02T05:27:10;64.97;;;25.40;;
74213;SDS011;62576;55.694;37.494;2024-03-02T05:29:40;64.05;;;25.80;;
74213;SDS011;62576;55.694;37.494;2024-03-02T05:32:10;62.33;;;25.02;;
74213;SDS011;62576;55.694;37.494;2024-03-02T05:34:40;63.80;;;25.58;;
74213;SDS011;62576;55.694;37.494;2024-03-02T05:37:11;66.55;;;26.42;;
74213;SDS011;62576;55.694;37.494;2024-03-02T05:39:41;67.35;;;26.48;;
74213;SDS011;62576;55.694;37.494;2024-03-02T05:42:13;68.55;;;27.55;;
74213;SDS011;62576;55.694;37.494;2024-03-02T05:44:44;67.53;;;26.50;;
74213;SDS011;62576;55.694;37.494;2024-03-02T05:47:15;68.53;;;27.05;;
74213;SDS011;62576;55.694;37.494;2024-03-02T05:49:45;68.32;;;26.73;;
74213;SDS011;62576;55.694;37.494;2024-03-02T05:52:15;71.65;;;27.92;;
74213;SDS011;62576;55.694;37.494;2024-03-02T05:54:45;70.40;;;27.40;;
74213;SDS011;62576;55.694;37.494;2024-03-02T05:57:18;68.88;;;28.13;;
74213;SDS011;62576;55.694;37.494;2024-03-02T06:00:02;70.18;;;27.13;;
74213;SDS011;62576;55.694;37.494;2024-03-02T06:02:38;67.38;;;25.83;;
74213;SDS011;62576;55.694;37.494;2024-03-02T06:05:09;65.90;;;28.10;;
74213;SDS011;62576;55.694;37.494;2024-03-02T06:07:39;73.10;;;29.00;;
74213;SDS011;62576;55.694;37.494;2024-03-02T06:10:09;71.15;;;27.90;;
74213;SDS011;62576;55.694;37.494;2024-03-02T06:12:41;70.68;;;26.33;;
74213;SDS011;62576;55.694;37.494;2024-03-02T06:15:11;66.00;;;26.75;;
74213;SDS011;62576;55.694;37.494;2024-03-02T06:17:41;72.28;;;28.33;;
74213;SDS011;62576;55.694;37.494;2024-03-02T06:20:12;67.25;;;28.73;;
74213;SDS011;62576;55.694;37.494;2024-03-02T06:22:42;73.28;;;28.95;;
74213;SDS011;62576;55.694;37.494;2024-03-02T06:25:12;73.70;;;29.13;;
74213;SDS011;62576;55.694;37.494;2024-03-02T06:27:44;69.95;;;28.38;;
74213;SDS011;62576;55.694;37.494;2024-03-02T06:30:14;75.93;;;30.70;;
74213;SDS011;62576;55.694;37.494;2024-03-02T06:32:45;74.18;;;29.35;;
74213;SDS011;62576;55.694;37.494;2024-03-02T06:35:15;67.75;;;28.08;;
74213;SDS011;62576;55.694;37.494;2024-03-02T06:37:45;73.50;;;29.15;;
74213;SDS011;62576;55.694;37.494;2024-03-02T06:40:15;74.53;;;28.67;;
74213;SDS011;62576;55.694;37.494;2024-03-02T06:42:47;73.72;;;29.38;;
74213;SDS011;62576;55.694;37.494;2024-03-02T06:45:17;73.00;;;28.67;;
74213;SDS011;62576;55.694;37.494;2024-03-02T06:47:47;70.13;;;29.00;;
74213;SDS011;62576;55.694;37.494;2024-03-02T06:50:18;72.55;;;30.20;;
74213;SDS011;62576;55.694;37.494;2024-03-02T06:52:48;70.78;;;29.77;;
74213;SDS011;62576;55.694;37.494;2024-03-02T06:55:15;72.38;;;30.85;;
74213;SDS011;62576;55.694;37.494;2024-03-02T06:57:48;76.55;;;31.42;;
74213;SDS011;62576;55.694;37.494;2024-03-02T07:00:19;81.18;;;32.63;;
74213;SDS011;62576;55.694;37.494;2024-03-02T07:02:49;76.05;;;31.77;;
74213;SDS011;62576;55.694;37.494;2024-03-02T07:05:20;82.72;;;31.98;;
74213;SDS011;62576;55.694;37.494;2024-03-02T07:07:50;82.05;;;33.67;;
74213;SDS011;62576;55.694;37.494;2024-03-02T07:10:20;83.88;;;33.63;;
74213;SDS011;62576;55.694;37.494;2024-03-02T07:12:52;82.18;;;33.35;;
74213;SDS011;62576;55.694;37.494;2024-03-02T07:15:19;86.47;;;35.40;;
74213;SDS011;62576;55.694;37.494;2024-03-02T07:18:12;81.85;;;34.97;;
74213;SDS011;62576;55.694;37.494;2024-03-02T07:20:43;81.90;;;36.00;;
74213;SDS011;62576;55.694;37.494;2024-03-02T07:23:12;88.93;;;37.70;;
74213;SDS011;62576;55.694;37.494;2024-03-02T07:25:43;84.68;;;35.75;;
74213;SDS011;62576;55.694;37.494;2024-03-02T07:28:14;87.88;;;38.15;;
74213;SDS011;62576;55.694;37.494;2024-03-02T07:30:45;86.78;;;37.30;;
74213;SDS011;62576;55.694;37.494;2024-03-02T07:33:16;91.55;;;37.28;;
74213;SDS011;62576;55.694;37.494;2024-03-02T07:36:00;93.53;;;39.63;;
74213;SDS011;62576;55.694;37.494;2024-03-02T07:38:30;100.45;;;44.20;;
74213;SDS011;62576;55.694;37.494;2024-03-02T07:41:02;101.63;;;45.13;;
74213;SDS011;62576;55.694;37.494;2024-03-02T07:43:34;101.13;;;44.10;;
74213;SDS011;62576;55.694;37.494;2024-03-02T07:46:04;101.93;;;48.42;;
74213;SDS011;62576;55.694;37.494;2024-03-02T07:48:35;110.18;;;49.05;;
74213;SDS011;62576;55.694;37.494;2024-03-02T07:51:05;110.78;;;50.17;;
74213;SDS011;62576;55.694;37.494;2024-03-02T07:53:36;112.47;;;52.13;;
74213;SDS011;62576;55.694;37.494;2024-03-02T07:56:06;109.93;;;53.65;;
74213;SDS011;62576;55.694;37.494;2024-03-02T07:58:35;108.90;;;51.75;;
74213;SDS011;62576;55.694;37.494;2024-03-02T08:01:06;109.28;;;49.60;;
74213;SDS011;62576;55.694;37.494;2024-03-02T08:03:37;87.70;;;38.67;;
74213;SDS011;62576;55.694;37.494;2024-03-02T08:06:08;97.53;;;46.70;;
74213;SDS011;62576;55.694;37.494;2024-03-02T08:08:38;101.93;;;49.10;;
74213;SDS011;62576;55.694;37.494;2024-03-02T08:11:08;99.40;;;50.90;;
74213;SDS011;62576;55.694;37.494;2024-03-02T08:13:40;107.78;;;51.42;;
74213;SDS011;62576;55.694;37.494;2024-03-02T08:16:11;101.70;;;47.70;;
74213;SDS011;62576;55.694;37.494;2024-03-02T08:18:41;96.18;;;44.97;;
74213;SDS011;62576;55.694;37.494;2024-03-02T08:21:12;91.28;;;42.17;;
74213;SDS011;62576;55.694;37.494;2024-03-02T08:23:43;97.75;;;46.40;;
74213;SDS011;62576;55.694;37.494;2024-03-02T08:26:14;92.47;;;42.45;;
74213;SDS011;62576;55.694;37.494;2024-03-02T08:28:46;92.95;;;42.83;;
74213;SDS011;62576;55.694;37.494;2024-03-02T08:31:16;93.72;;;44.83;;
74213;SDS011;62576;55.694;37.494;2024-03-02T08:33:47;88.57;;;41.95;;
74213;SDS011;62576;55.694;37.494;2024-03-02T08:36:17;85.55;;;38.55;;
74213;SDS011;62576;55.694;37.494;2024-03-02T08:38:48;86.47;;;39.40;;
74213;SDS011;62576;55.694;37.494;2024-03-02T08:41:18;84.20;;;38.53;;
74213;SDS011;62576;55.694;37.494;2024-03-02T08:43:50;83.70;;;36.55;;
74213;SDS011;62576;55.694;37.494;2024-03-02T08:46:21;78.63;;;36.50;;
74213;SDS011;62576;55.694;37.494;2024-03-02T08:48:51;81.70;;;36.70;;
74213;SDS011;62576;55.694;37.494;2024-03-02T08:51:21;79.32;;;37.75;;
74213;SDS011;62576;55.694;37.494;2024-03-02T08:53:52;79.88;;;35.67;;
74213;SDS011;62576;55.694;37.494;2024-03-02T08:56:22;81.25;;;35.13;;
74213;SDS011;62576;55.694;37.494;2024-03-02T08:58:51;76.53;;;34.42;;
74213;SDS011;62576;55.694;37.494;2024-03-02T09:01:22;82.28;;;36.45;;
74213;SDS011;62576;55.694;37.494;2024-03-02T09:03:52;80.95;;;36.65;;
74213;SDS011;62576;55.694;37.494;2024-03-02T09:06:27;75.68;;;33.70;;
74213;SDS011;62576;55.694;37.494;2024-03-02T09:09:11;78.35;;;34.72;;
74213;SDS011;62576;55.694;37.494;2024-03-02T09:11:41;80.20;;;34.53;;
74213;SDS011;62576;55.694;37.494;2024-03-02T09:14:13;77.38;;;33.95;;
74213;SDS011;62576;55.694;37.494;2024-03-02T09:16:44;78.25;;;34.88;;
74213;SDS011;62576;55.694;37.494;2024-03-02T09:19:14;81.85;;;35.17;;
74213;SDS011;62576;55.694;37.494;2024-03-02T09:21:45;77.03;;;35.28;;
74213;SDS011;62576;55.694;37.494;2024-03-02T09:24:15;74.75;;;33.53;;
74213;SDS011;62576;55.694;37.494;2024-03-02T09:26:46;84.75;;;34.67;;
74213;SDS011;62576;55.694;37.494;2024-03-02T09:29:17;82.72;;;35.80;;
74213;SDS011;62576;55.694;37.494;2024-03-02T09:31:49;75.93;;;35.28;;
74213;SDS011;62576;55.694;37.494;2024-03-02T09:34:19;79.38;;;35.80;;
74213;SDS011;62576;55.694;37.494;2024-03-02T09:36:51;81.10;;;36.60;;
74213;SDS011;62576;55.694;37.494;2024-03-02T09:39:21;79.70;;;35.63;;
74213;SDS011;62576;55.694;37.494;2024-03-02T09:41:51;79.43;;;36.60;;
74213;SDS011;62576;55.694;37.494;2024-03-02T09:44:24;79.30;;;34.15;;
74213;SDS011;62576;55.694;37.494;2024-03-02T09:46:55;71.65;;;32.20;;
74213;SDS011;62576;55.694;37.494;2024-03-02T09:49:25;71.75;;;32.05;;
74213;SDS011;62576;55.694;37.494;2024-03-02T09:51:55;72.88;;;30.40;;
74213;SDS011;62576;55.694;37.494;2024-03-02T09:54:26;75.22;;;32.35;;
74213;SDS011;62576;55.694;37.494;2024-03-02T09:56:57;75.50;;;32.13;;
74213;SDS011;62576;55.694;37.494;2024-03-02T09:59:26;69.53;;;30.80;;
74213;SDS011;62576;55.694;37.494;2024-03-02T10:01:57;71.43;;;32.15;;
74213;SDS011;62576;55.694;37.494;2024-03-02T10:04:29;75.80;;;30.45;;
74213;SDS011;62576;55.694;37.494;2024-03-02T10:09:57;74.60;;;29.38;;
74213;SDS011;62576;55.694;37.494;2024-03-02T10:12:27;67.47;;;27.95;;
74213;SDS011;62576;55.694;37.494;2024-03-02T10:15:04;73.22;;;30.17;;
74213;SDS011;62576;55.694;37.494;2024-03-02T10:17:36;65.65;;;27.55;;
74213;SDS011;62576;55.694;37.494;2024-03-02T10:20:22;72.80;;;28.33;;
74213;SDS011;62576;55.694;37.494;2024-03-02T10:22:53;73.13;;;29.17;;
74213;SDS011;62576;55.694;37.494;2024-03-02T10:25:29;79.03;;;29.60;;
74213;SDS011;62576;55.694;37.494;2024-03-02T10:28:00;70.28;;;28.45;;
74213;SDS011;62576;55.694;37.494;2024-03-02T10:30:34;68.85;;;27.88;;
74213;SDS011;62576;55.694;37.494;2024-03-02T10:33:05;62.45;;;25.80;;
74213;SDS011;62576;55.694;37.494;2024-03-02T10:35:36;64.60;;;26.73;;
74213;SDS011;62576;55.694;37.494;2024-03-02T10:38:08;59.42;;;24.92;;
74213;SDS011;62576;55.694;37.494;2024-03-02T10:40:41;62.37;;;26.27;;
74213;SDS011;62576;55.694;37.494;2024-03-02T10:43:17;61.88;;;25.52;;
74213;SDS011;62576;55.694;37.494;2024-03-02T10:45:50;60.88;;;25.25;;
74213;SDS011;62576;55.694;37.494;2024-03-02T10:48:22;63.05;;;25.75;;
74213;SDS011;62576;55.694;37.494;2024-03-02T10:50:56;62.38;;;25.98;;
74213;SDS011;62576;55.694;37.494;2024-03-02T10:53:29;65.38;;;26.10;;
74213;SDS011;62576;55.694;37.494;2024-03-02T10:56:00;64.88;;;27.52;;
74213;SDS011;62576;55.694;37.494;2024-03-02T10:58:31;63.80;;;26.90;;
74213;SDS011;62576;55.694;37.494;2024-03-02T11:01:04;70.20;;;27.63;;
74213;SDS011;62576;55.694;37.494;2024-03-02T11:03:37;70.78;;;28.67;;
74213;SDS011;62576;55.694;37.494;2024-03-02T11:06:10;70.67;;;26.70;;
74213;SDS011;62576;55.694;37.494;2024-03-02T11:08:43;55.35;;;25.45;;
74213;SDS011;62576;55.694;37.494;2024-03-02T11:11:19;62.85;;;26.98;;
74213;SDS011;62576;55.694;37.494;2024-03-02T11:13:57;56.60;;;27.13;;
74213;SDS011;62576;55.694;37.494;2024-03-02T11:16:38;61.92;;;27.60;;
74213;SDS011;62576;55.694;37.494;2024-03-02T11:19:10;61.42;;;27.40;;
74213;SDS011;62576;55.694;37.494;2024-03-02T11:21:42;70.90;;;29.85;;
74213;SDS011;62576;55.694;37.494;2024-03-02T11:27:05;61.33;;;27.35;;
74213;SDS011;62576;55.694;37.494;2024-03-02T11:29:42;62.60;;;27.02;;
74213;SDS011;62576;55.694;37.494;2024-03-02T11:32:15;63.78;;;26.95;;
74213;SDS011;62576;55.694;37.494;2024-03-02T11:34:47;65.05;;;26.60;;
74213;SDS011;62576;55.694;37.494;2024-03-02T11:37:19;62.75;;;28.02;;
74213;SDS011;62576;55.694;37.494;2024-03-02T11:39:50;59.22;;;27.40;;
74213;SDS011;62576;55.694;37.494;2024-03-02T11:42:21;64.10;;;27.67;;
74213;SDS011;62576;55.694;37.494;2024-03-02T11:44:51;58.15;;;26.45;;
74213;SDS011;62576;55.694;37.494;2024-03-02T11:47:28;58.22;;;26.63;;
74213;SDS011;62576;55.694;37.494;2024-03-02T11:50:00;68.07;;;26.27;;
74213;SDS011;62576;55.694;37.494;2024-03-02T11:52:30;55.35;;;24.95;;
74213;SDS011;62576;55.694;37.494;2024-03-02T11:55:00;57.50;;;25.58;;
74213;SDS011;62576;55.694;37.494;2024-03-02T11:57:32;54.58;;;24.58;;
74213;SDS011;62576;55.694;37.494;2024-03-02T12:00:03;51.08;;;23.65;;
74213;SDS011;62576;55.694;37.494;2024-03-02T12:02:36;48.97;;;23.20;;
74213;SDS011;62576;55.694;37.494;2024-03-02T12:05:10;43.38;;;21.23;;
74213;SDS011;62576;55.694;37.494;2024-03-02T12:07:40;41.35;;;20.77;;
74213;SDS011;62576;55.694;37.494;2024-03-02T12:10:11;41.72;;;19.65;;
74213;SDS011;62576;55.694;37.494;2024-03-02T12:12:41;42.17;;;19.38;;
74213;SDS011;62576;55.694;37.494;2024-03-02T12:15:12;42.40;;;20.08;;
74213;SDS011;62576;55.694;37.494;2024-03-02T12:17:44;35.67;;;18.90;;
74213;SDS011;62576;55.694;37.494;2024-03-02T12:20:14;42.07;;;21.10;;
74213;SDS011;62576;55.694;37.494;2024-03-02T12:22:45;43.40;;;21.42;;
74213;SDS011;62576;55.694;37.494;2024-03-02T12:25:16;39.38;;;20.98;;
74213;SDS011;62576;55.694;37.494;2024-03-02T12:27:48;38.42;;;21.75;;
74213;SDS011;62576;55.694;37.494;2024-03-02T12:30:21;42.30;;;22.60;;
74213;SDS011;62576;55.694;37.494;2024-03-02T12:32:54;46.20;;;22.17;;
74213;SDS011;62576;55.694;37.494;2024-03-02T12:35:24;44.88;;;23.17;;
74213;SDS011;62576;55.694;37.494;2024-03-02T12:37:55;46.40;;;24.25;;
74213;SDS011;62576;55.694;37.494;2024-03-02T12:40:25;46.38;;;23.63;;
74213;SDS011;62576;55.694;37.494;2024-03-02T12:42:56;46.05;;;21.77;;
74213;SDS011;62576;55.694;37.494;2024-03-02T12:45:26;48.70;;;22.70;;
74213;SDS011;62576;55.694;37.494;2024-03-02T12:47:59;43.42;;;22.00;;
74213;SDS011;62576;55.694;37.494;2024-03-02T12:53:00;44.28;;;19.77;;
74213;SDS011;62576;55.694;37.494;2024-03-02T12:55:30;41.90;;;20.35;;
74213;SDS011;62576;55.694;37.494;2024-03-02T12:58:01;43.72;;;20.52;;
74213;SDS011;62576;55.694;37.494;2024-03-02T13:00:31;39.88;;;19.33;;
74213;SDS011;62576;55.694;37.494;2024-03-02T13:03:05;49.10;;;22.13;;
74213;SDS011;62576;55.694;37.494;2024-03-02T13:05:39;42.47;;;18.33;;
74213;SDS011;62576;55.694;37.494;2024-03-02T13:08:09;43.92;;;18.45;;
74213;SDS011;62576;55.694;37.494;2024-03-02T13:10:40;39.92;;;18.17;;
74213;SDS011;62576;55.694;37.494;2024-03-02T13:13:10;39.38;;;18.10;;
74213;SDS011;62576;55.694;37.494;2024-03-02T13:15:40;36.35;;;16.15;;
74213;SDS011;62576;55.694;37.494;2024-03-02T13:18:13;45.28;;;17.35;;
74213;SDS011;62576;55.694;37.494;2024-03-02T13:20:43;38.78;;;17.20;;
74213;SDS011;62576;55.694;37.494;2024-03-02T13:23:14;33.25;;;16.67;;
74213;SDS011;62576;55.694;37.494;2024-03-02T13:25:44;37.75;;;16.10;;
74213;SDS011;62576;55.694;37.494;2024-03-02T13:28:15;32.17;;;15.02;;
74213;SDS011;62576;55.694;37.494;2024-03-02T13:30:45;39.15;;;15.82;;
74213;SDS011;62576;55.694;37.494;2024-03-02T13:33:17;43.22;;;17.63;;
74213;SDS011;62576;55.694;37.494;2024-03-02T13:35:50;41.58;;;17.33;;
74213;SDS011;62576;55.694;37.494;2024-03-02T13:38:21;31.98;;;15.52;;
74213;SDS011;62576;55.694;37.494;2024-03-02T13:40:51;40.65;;;16.48;;
74213;SDS011;62576;55.694;37.494;2024-03-02T13:43:22;37.28;;;16.90;;
74213;SDS011;62576;55.694;37.494;2024-03-02T13:45:53;37.65;;;16.88;;
74213;SDS011;62576;55.694;37.494;2024-03-02T13:48:25;40.92;;;16.33;;
74213;SDS011;62576;55.694;37.494;2024-03-02T13:50:55;43.10;;;18.27;;
74213;SDS011;62576;55.694;37.494;2024-03-02T13:53:26;38.50;;;16.27;;
74213;SDS011;62576;55.694;37.494;2024-03-02T13:55:56;39.53;;;16.95;;
74213;SDS011;62576;55.694;37.494;2024-03-02T13:58:27;39.63;;;15.45;;
74213;SDS011;62576;55.694;37.494;2024-03-02T14:00:57;38.45;;;15.45;;
74213;SDS011;62576;55.694;37.494;2024-03-02T14:03:29;38.90;;;15.75;;
74213;SDS011;62576;55.694;37.494;2024-03-02T14:05:59;32.75;;;15.43;;
74213;SDS011;62576;55.694;37.494;2024-03-02T14:08:30;34.05;;;14.85;;
74213;SDS011;62576;55.694;37.494;2024-03-02T14:11:02;40.22;;;16.85;;
74213;SDS011;62576;55.694;37.494;2024-03-02T14:13:32;46.35;;;17.67;;
74213;SDS011;62576;55.694;37.494;2024-03-02T14:16:03;42.10;;;17.73;;
74213;SDS011;62576;55.694;37.494;2024-03-02T14:18:35;46.00;;;19.23;;
74213;SDS011;62576;55.694;37.494;2024-03-02T14:21:06;51.83;;;20.40;;
74213;SDS011;62576;55.694;37.494;2024-03-02T14:23:37;47.85;;;21.33;;
74213;SDS011;62576;55.694;37.494;2024-03-02T14:26:08;54.25;;;21.05;;
74213;SDS011;62576;55.694;37.494;2024-03-02T14:28:39;51.97;;;21.63;;
74213;SDS011;62576;55.694;37.494;2024-03-02T14:31:09;53.88;;;21.10;;
74213;SDS011;62576;55.694;37.494;2024-03-02T14:33:41;50.75;;;21.23;;
74213;SDS011;62576;55.694;37.494;2024-03-02T14:36:11;50.05;;;20.58;;
74213;SDS011;62576;55.694;37.494;2024-03-02T14:38:42;49.22;;;20.63;;
74213;SDS011;62576;55.694;37.494;2024-03-02T14:41:12;49.50;;;20.08;;